createdAt,value
2018-08-13T00:01:17.049Z,1013.50
2018-08-13T00:02:43.698Z,1013.48
2018-08-13T00:04:11.101Z,1013.48
2018-08-13T00:05:37.070Z,1013.48
2018-08-13T00:07:04.590Z,1013.46
2018-08-13T00:08:31.926Z,1013.47
2018-08-13T00:09:59.596Z,1013.45
2018-08-13T00:11:27.168Z,1013.48
2018-08-13T00:12:53.768Z,1013.46
2018-08-13T00:14:21.383Z,1013.45
2018-08-13T00:15:48.638Z,1013.42
2018-08-13T00:17:16.091Z,1013.40
2018-08-13T00:18:43.286Z,1013.40
2018-08-13T00:20:09.560Z,1013.39
2018-08-13T00:21:36.955Z,1013.38
2018-08-13T00:23:04.309Z,1013.38
2018-08-13T00:24:31.823Z,1013.37
2018-08-13T00:25:59.285Z,1013.35
2018-08-13T00:27:26.816Z,1013.36
2018-08-13T00:28:54.302Z,1013.35
2018-08-13T00:30:21.679Z,1013.30
2018-08-13T00:31:48.520Z,1013.30
2018-08-13T00:33:15.882Z,1013.27
2018-08-13T00:34:43.233Z,1013.27
2018-08-13T00:36:10.883Z,1013.26
2018-08-13T00:37:45.311Z,1013.27
2018-08-13T00:39:04.628Z,1013.29
2018-08-13T00:40:32.082Z,1013.27
2018-08-13T00:41:59.445Z,1013.26
2018-08-13T00:43:26.730Z,1013.23
2018-08-13T00:44:54.262Z,1013.21
2018-08-13T00:46:21.715Z,1013.18
2018-08-13T00:47:48.982Z,1013.17
2018-08-13T00:49:16.471Z,1013.17
2018-08-13T00:50:43.587Z,1013.18
2018-08-13T00:52:10.089Z,1013.18
2018-08-13T00:53:37.668Z,1013.19
2018-08-13T00:55:03.899Z,1013.19
2018-08-13T00:56:31.347Z,1013.20
2018-08-13T00:57:58.847Z,1013.20
2018-08-13T00:59:26.231Z,1013.21
2018-08-13T01:00:53.605Z,1013.21
2018-08-13T01:02:20.539Z,1013.21
2018-08-13T01:03:47.817Z,1013.21
2018-08-13T01:05:15.626Z,1013.20
2018-08-13T01:06:43.052Z,1013.19
2018-08-13T01:08:10.815Z,1013.17
2018-08-13T01:09:36.914Z,1013.14
2018-08-13T01:11:04.343Z,1013.10
2018-08-13T01:12:32.071Z,1013.09
2018-08-13T01:13:58.327Z,1013.07
2018-08-13T01:15:25.633Z,1013.04
2018-08-13T01:16:52.756Z,1013.00
2018-08-13T01:18:20.331Z,1012.98
2018-08-13T01:19:46.820Z,1012.99
2018-08-13T01:21:14.591Z,1012.98
2018-08-13T01:22:41.983Z,1012.92
2018-08-13T01:24:09.469Z,1012.90
2018-08-13T01:25:37.142Z,1012.89
2018-08-13T01:27:04.689Z,1012.90
2018-08-13T01:28:31.151Z,1012.89
2018-08-13T01:29:58.524Z,1012.89
2018-08-13T01:31:25.172Z,1012.88
2018-08-13T01:32:52.539Z,1012.82
2018-08-13T01:34:20.138Z,1012.79
2018-08-13T01:35:47.517Z,1012.77
2018-08-13T01:37:13.841Z,1012.75
2018-08-13T01:38:39.781Z,1012.71
2018-08-13T01:40:07.451Z,1012.69
2018-08-13T01:41:34.891Z,1012.65
2018-08-13T01:43:02.445Z,1012.65
2018-08-13T01:44:30.121Z,1012.63
2018-08-13T01:45:57.396Z,1012.62
2018-08-13T01:47:24.119Z,1012.61
2018-08-13T01:48:51.600Z,1012.60
2018-08-13T01:50:19.062Z,1012.62
2018-08-13T01:51:46.449Z,1012.60
2018-08-13T01:53:13.941Z,1012.59
2018-08-13T01:54:41.429Z,1012.59
2018-08-13T01:56:07.610Z,1012.58
2018-08-13T01:57:33.852Z,1012.59
2018-08-13T01:59:00.294Z,1012.55
2018-08-13T02:00:27.622Z,1012.54
2018-08-13T02:01:55.139Z,1012.50
2018-08-13T02:03:22.664Z,1012.43
2018-08-13T02:04:49.210Z,1012.42
2018-08-13T02:06:16.522Z,1012.40
2018-08-13T02:07:46.140Z,1012.38
2018-08-13T02:09:10.430Z,1012.36
2018-08-13T02:10:36.565Z,1012.39
2018-08-13T02:12:04.003Z,1012.40
2018-08-13T02:13:31.299Z,1012.41
2018-08-13T02:14:58.824Z,1012.40
2018-08-13T02:16:26.198Z,1012.39
2018-08-13T02:17:53.849Z,1012.35
2018-08-13T02:19:21.300Z,1012.36
2018-08-13T02:20:48.337Z,1012.37
2018-08-13T02:22:15.715Z,1012.35
2018-08-13T02:23:43.407Z,1012.31
2018-08-13T02:25:10.963Z,1012.30
2018-08-13T02:26:37.222Z,1012.29
2018-08-13T02:28:03.294Z,1012.29
2018-08-13T02:29:31.004Z,1012.27
2018-08-13T02:30:58.525Z,1012.28
2018-08-13T02:32:25.937Z,1012.24
2018-08-13T02:33:53.405Z,1012.23
2018-08-13T02:35:19.786Z,1012.21
2018-08-13T02:36:46.690Z,1012.17
2018-08-13T02:38:14.116Z,1012.17
2018-08-13T02:39:41.707Z,1012.15
2018-08-13T02:41:09.197Z,1012.16
2018-08-13T02:42:36.815Z,1012.16
2018-08-13T02:44:04.445Z,1012.18
2018-08-13T02:45:31.985Z,1012.18
2018-08-13T02:46:58.276Z,1012.16
2018-08-13T02:48:25.595Z,1012.16
2018-08-13T02:49:52.297Z,1012.18
2018-08-13T02:51:18.976Z,1012.18
2018-08-13T02:52:46.282Z,1012.17
2018-08-13T02:54:13.759Z,1012.17
2018-08-13T02:55:41.343Z,1012.18
2018-08-13T02:57:08.763Z,1012.16
2018-08-13T02:58:36.018Z,1012.16
2018-08-13T03:00:03.308Z,1012.16
2018-08-13T03:01:30.761Z,1012.16
2018-08-13T03:02:57.182Z,1012.19
2018-08-13T03:04:24.686Z,1012.19
2018-08-13T03:05:52.089Z,1012.19
2018-08-13T03:07:19.640Z,1012.18
2018-08-13T03:08:46.144Z,1012.20
2018-08-13T03:10:13.704Z,1012.18
2018-08-13T03:11:40.620Z,1012.18
2018-08-13T03:13:07.962Z,1012.17
2018-08-13T03:14:35.521Z,1012.17
2018-08-13T03:16:01.848Z,1012.12
2018-08-13T03:17:29.205Z,1012.12
2018-08-13T03:18:56.711Z,1012.08
2018-08-13T03:20:23.948Z,1012.07
2018-08-13T03:21:51.346Z,1012.06
2018-08-13T03:23:18.950Z,1012.07
2018-08-13T03:24:45.984Z,1012.06
2018-08-13T03:26:13.511Z,1012.06
2018-08-13T03:27:40.990Z,1012.04
2018-08-13T03:41:04.395Z,1011.86
2018-08-13T03:42:31.191Z,1011.87
2018-08-13T03:43:58.660Z,1011.86
2018-08-13T03:45:26.039Z,1011.86
2018-08-13T03:46:53.317Z,1011.85
2018-08-13T03:48:21.055Z,1011.84
2018-08-13T03:49:47.834Z,1011.79
2018-08-13T03:53:40.773Z,1011.74
2018-08-13T05:52:33.749Z,1011.33
2018-08-13T05:54:00.625Z,1011.33
2018-08-13T05:55:27.906Z,1011.31
2018-08-13T05:56:55.295Z,1011.31
2018-08-13T05:58:22.837Z,1011.34
2018-08-13T05:59:49.921Z,1011.34
2018-08-13T06:01:17.393Z,1011.32
2018-08-13T06:02:44.937Z,1011.30
2018-08-13T06:04:12.630Z,1011.30
2018-08-13T06:05:40.162Z,1011.34
2018-08-13T06:07:06.684Z,1011.36
2018-08-13T06:08:34.168Z,1011.39
2018-08-13T06:10:01.802Z,1011.38
2018-08-13T06:11:28.250Z,1011.37
2018-08-13T06:12:54.690Z,1011.37
2018-08-13T06:14:21.920Z,1011.37
2018-08-13T06:15:49.368Z,1011.35
2018-08-13T06:17:16.383Z,1011.35
2018-08-13T06:18:42.761Z,1011.35
2018-08-13T06:20:09.345Z,1011.38
2018-08-13T06:21:35.716Z,1011.38
2018-08-13T06:23:03.200Z,1011.37
2018-08-13T06:24:30.757Z,1011.36
2018-08-13T06:25:57.089Z,1011.36
2018-08-13T06:27:24.322Z,1011.37
2018-08-13T06:28:51.826Z,1011.36
2018-08-13T06:30:17.957Z,1011.34
2018-08-13T06:31:45.620Z,1011.35
2018-08-13T06:33:12.994Z,1011.36
2018-08-13T06:34:40.325Z,1011.39
2018-08-13T06:36:06.844Z,1011.40
2018-08-13T06:37:34.487Z,1011.40
2018-08-13T06:39:01.964Z,1011.41
2018-08-13T06:40:28.863Z,1011.40
2018-08-13T06:41:56.392Z,1011.40
2018-08-13T06:43:23.897Z,1011.38
2018-08-13T06:44:51.085Z,1011.37
2018-08-13T06:46:18.146Z,1011.36
2018-08-13T06:47:45.514Z,1011.36
2018-08-13T06:49:13.097Z,1011.35
2018-08-13T06:50:40.545Z,1011.38
2018-08-13T06:52:08.126Z,1011.36
2018-08-13T06:53:35.322Z,1011.37
2018-08-13T06:55:02.880Z,1011.35
2018-08-13T06:56:30.548Z,1011.36
2018-08-13T06:57:58.066Z,1011.33
2018-08-13T06:59:24.442Z,1011.34
2018-08-13T07:00:50.866Z,1011.33
2018-08-13T07:02:18.461Z,1011.29
2018-08-13T07:03:45.793Z,1011.30
2018-08-13T07:05:13.442Z,1011.32
2018-08-13T07:06:41.031Z,1011.31
2018-08-13T07:08:08.533Z,1011.31
2018-08-13T07:09:36.022Z,1011.33
2018-08-13T07:11:03.405Z,1011.33
2018-08-13T07:12:30.907Z,1011.28
2018-08-13T07:13:58.491Z,1011.22
2018-08-13T07:15:25.944Z,1011.16
2018-08-13T07:16:53.297Z,1011.13
2018-08-13T07:18:20.362Z,1011.12
2018-08-13T07:19:47.180Z,1011.12
2018-08-13T07:21:15.711Z,1011.10
2018-08-13T07:22:42.063Z,1011.03
2018-08-13T07:24:09.572Z,1011.03
2018-08-13T07:25:36.936Z,1010.98
2018-08-13T07:27:04.403Z,1010.95
2018-08-13T07:28:31.920Z,1010.93
2018-08-13T07:29:59.247Z,1010.95
2018-08-13T07:31:26.856Z,1010.98
2018-08-13T07:32:53.340Z,1011.00
2018-08-13T07:34:19.879Z,1011.00
2018-08-13T07:35:45.932Z,1011.02
2018-08-13T07:37:13.359Z,1011.02
2018-08-13T07:38:41.008Z,1011.02
2018-08-13T07:40:08.444Z,1011.00
2018-08-13T07:41:36.096Z,1010.96
2018-08-13T07:43:03.662Z,1010.93
2018-08-13T07:44:30.157Z,1010.93
2018-08-13T07:45:57.739Z,1010.87
2018-08-13T07:47:25.159Z,1010.91
2018-08-13T07:48:52.593Z,1010.89
2018-08-13T07:50:19.572Z,1010.92
2018-08-13T07:51:46.391Z,1010.94
2018-08-13T07:53:13.903Z,1010.98
2018-08-13T07:54:41.338Z,1010.98
2018-08-13T07:56:08.885Z,1010.97
2018-08-13T07:57:36.316Z,1010.94
2018-08-13T07:59:04.062Z,1010.94
2018-08-13T08:00:30.331Z,1010.96
2018-08-13T08:01:57.995Z,1010.93
2018-08-13T08:03:25.555Z,1010.92
2018-08-13T08:04:52.285Z,1010.95
2018-08-13T08:06:19.883Z,1010.95
2018-08-13T08:07:47.008Z,1010.94
2018-08-13T08:09:14.661Z,1010.97
2018-08-13T08:10:42.280Z,1010.96
2018-08-13T08:12:09.740Z,1010.95
2018-08-13T08:13:37.129Z,1010.94
2018-08-13T08:15:04.597Z,1010.93
2018-08-13T08:16:32.232Z,1010.89
2018-08-13T08:17:58.922Z,1010.87
2018-08-13T08:19:26.491Z,1010.85
2018-08-13T08:20:53.101Z,1010.86
2018-08-13T08:22:20.446Z,1010.83
2018-08-13T08:23:47.988Z,1010.81
2018-08-13T08:25:15.582Z,1010.80
2018-08-13T08:26:43.130Z,1010.80
2018-08-13T08:28:10.609Z,1010.80
2018-08-13T08:29:38.069Z,1010.77
2018-08-13T08:31:05.562Z,1010.77
2018-08-13T08:32:32.741Z,1010.72
2018-08-13T08:34:00.288Z,1010.71
2018-08-13T08:35:27.717Z,1010.70
2018-08-13T08:36:55.122Z,1010.73
2018-08-13T08:38:21.880Z,1010.74
2018-08-13T08:39:49.085Z,1010.76
2018-08-13T08:41:16.438Z,1010.72
2018-08-13T08:42:43.697Z,1010.70
2018-08-13T08:44:11.212Z,1010.68
2018-08-13T08:45:39.031Z,1010.63
2018-08-13T08:47:05.323Z,1010.67
2018-08-13T08:48:32.872Z,1010.63
2018-08-13T08:50:00.347Z,1010.60
2018-08-13T08:51:28.135Z,1010.61
2018-08-13T08:52:55.487Z,1010.61
2018-08-13T08:54:22.797Z,1010.62
2018-08-13T08:55:49.570Z,1010.57
2018-08-13T08:57:16.578Z,1010.58
2018-08-13T08:58:44.111Z,1010.57
2018-08-13T09:00:10.790Z,1010.57
2018-08-13T09:01:38.328Z,1010.53
2018-08-13T09:03:05.988Z,1010.56
2018-08-13T09:04:33.596Z,1010.55
2018-08-13T09:06:01.343Z,1010.55
2018-08-13T09:07:28.153Z,1010.51
2018-08-13T09:08:55.872Z,1010.47
2018-08-13T09:10:22.559Z,1010.45
2018-08-13T09:11:50.028Z,1010.38
2018-08-13T09:13:17.379Z,1010.38
2018-08-13T09:14:43.814Z,1010.37
2018-08-13T09:16:11.318Z,1010.38
2018-08-13T09:17:38.996Z,1010.36
2018-08-13T09:19:06.680Z,1010.34
2018-08-13T09:20:34.262Z,1010.28
2018-08-13T09:22:00.615Z,1010.21
2018-08-13T09:23:28.111Z,1010.15
2018-08-13T09:24:55.739Z,1010.14
2018-08-13T09:26:23.073Z,1010.13
2018-08-13T09:27:50.418Z,1010.13
2018-08-13T09:29:18.141Z,1010.13
2018-08-13T09:30:45.862Z,1010.16
2018-08-13T09:32:13.289Z,1010.14
2018-08-13T09:33:40.770Z,1010.13
2018-08-13T09:35:08.343Z,1010.09
2018-08-13T09:36:35.389Z,1010.08
2018-08-13T09:38:02.725Z,1010.07
2018-08-13T09:39:30.173Z,1010.04
2018-08-13T09:40:57.310Z,1010.02
2018-08-13T09:42:24.771Z,1010.01
2018-08-13T09:43:52.473Z,1010.03
2018-08-13T09:45:19.480Z,1010.03
2018-08-13T09:46:47.050Z,1010.05
2018-08-13T09:48:14.703Z,1010.02
2018-08-13T09:49:42.240Z,1010.03
2018-08-13T09:51:09.778Z,1010.00
2018-08-13T09:52:37.457Z,1009.99
2018-08-13T09:54:04.970Z,1009.98
2018-08-13T09:55:32.549Z,1009.99
2018-08-13T09:57:00.069Z,1009.96
2018-08-13T09:58:27.683Z,1009.94
2018-08-13T09:59:55.292Z,1009.88
2018-08-13T10:01:22.739Z,1009.85
2018-08-13T10:02:50.068Z,1009.82
2018-08-13T10:04:17.584Z,1009.79
2018-08-13T10:05:45.369Z,1009.80
2018-08-13T10:07:12.869Z,1009.75
2018-08-13T10:08:40.470Z,1009.71
2018-08-13T10:10:08.042Z,1009.71
2018-08-13T10:11:35.724Z,1009.77
2018-08-13T10:13:02.408Z,1009.76
2018-08-13T10:14:29.269Z,1009.77
2018-08-13T10:15:55.746Z,1009.81
2018-08-13T10:17:23.321Z,1009.82
2018-08-13T10:18:50.392Z,1009.83
2018-08-13T10:20:17.324Z,1009.78
2018-08-13T10:21:43.741Z,1009.74
2018-08-13T10:23:10.662Z,1009.71
2018-08-13T10:24:38.227Z,1009.70
2018-08-13T10:26:05.311Z,1009.61
2018-08-13T10:27:32.303Z,1009.57
2018-08-13T10:28:59.985Z,1009.56
2018-08-13T10:30:27.628Z,1009.56
2018-08-13T10:31:55.163Z,1009.54
2018-08-13T10:33:22.536Z,1009.53
2018-08-13T10:34:50.224Z,1009.53
2018-08-13T10:36:17.741Z,1009.51
2018-08-13T10:37:45.015Z,1009.50
2018-08-13T10:39:12.326Z,1009.48
2018-08-13T10:40:39.885Z,1009.45
2018-08-13T10:42:07.531Z,1009.45
2018-08-13T10:43:35.194Z,1009.42
2018-08-13T10:45:02.625Z,1009.31
2018-08-13T10:46:30.234Z,1009.28
2018-08-13T10:47:57.922Z,1009.32
2018-08-13T10:49:25.547Z,1009.29
2018-08-13T10:50:52.905Z,1009.28
2018-08-13T10:52:20.549Z,1009.29
2018-08-13T10:53:47.931Z,1009.23
2018-08-13T10:55:15.647Z,1009.23
2018-08-13T10:56:43.276Z,1009.23
2018-08-13T10:58:10.608Z,1009.23
2018-08-13T10:59:38.393Z,1009.16
2018-08-13T11:01:05.994Z,1009.16
2018-08-13T11:02:33.697Z,1009.10
2018-08-13T11:04:01.385Z,1009.10
2018-08-13T11:05:28.910Z,1009.13
2018-08-13T11:06:56.545Z,1009.13
2018-08-13T11:08:24.263Z,1009.13
2018-08-13T11:09:51.931Z,1009.16
2018-08-13T11:11:19.349Z,1009.14
2018-08-13T11:12:46.919Z,1009.14
2018-08-13T11:14:14.613Z,1009.13
2018-08-13T11:15:42.161Z,1009.13
2018-08-13T11:17:09.608Z,1009.08
2018-08-13T11:18:37.279Z,1009.04
2018-08-13T11:20:04.935Z,1009.01
2018-08-13T11:21:32.643Z,1008.99
2018-08-13T11:23:00.252Z,1009.02
2018-08-13T11:24:27.780Z,1009.00
2018-08-13T11:25:55.400Z,1008.99
2018-08-13T11:27:22.913Z,1008.93
2018-08-13T11:28:50.421Z,1008.90
2018-08-13T11:30:17.889Z,1008.84
2018-08-13T11:31:45.598Z,1008.83
2018-08-13T11:33:13.319Z,1008.81
2018-08-13T11:34:41.055Z,1008.82
2018-08-13T11:36:08.688Z,1008.73
2018-08-13T11:37:36.337Z,1008.67
2018-08-13T11:39:04.016Z,1008.63
2018-08-13T11:40:31.726Z,1008.63
2018-08-13T11:41:59.434Z,1008.57
2018-08-13T11:43:27.066Z,1008.57
2018-08-13T11:44:54.685Z,1008.55
2018-08-13T11:46:22.391Z,1008.50
2018-08-13T11:47:49.782Z,1008.48
2018-08-13T11:49:17.233Z,1008.49
2018-08-13T11:50:44.772Z,1008.43
2018-08-13T11:52:12.441Z,1008.45
2018-08-13T11:53:40.201Z,1008.44
2018-08-13T11:55:07.808Z,1008.44
2018-08-13T11:56:35.516Z,1008.46
2018-08-13T11:58:03.058Z,1008.46
2018-08-13T11:59:30.780Z,1008.45
2018-08-13T12:00:58.353Z,1008.47
2018-08-13T12:02:25.931Z,1008.40
2018-08-13T12:03:53.673Z,1008.35
2018-08-13T12:05:21.086Z,1008.31
2018-08-13T12:06:48.864Z,1008.34
2018-08-13T12:08:16.404Z,1008.29
2018-08-13T12:09:44.144Z,1008.26
2018-08-13T12:11:11.734Z,1008.24
2018-08-13T12:12:39.498Z,1008.20
2018-08-13T12:14:07.219Z,1008.20
2018-08-13T12:15:34.784Z,1008.18
2018-08-13T12:17:02.516Z,1008.13
2018-08-13T12:18:30.291Z,1008.14
2018-08-13T12:19:57.967Z,1008.11
2018-08-13T12:21:28.727Z,1008.11
2018-08-13T12:22:53.354Z,1008.19
2018-08-13T12:24:20.981Z,1008.16
2018-08-13T12:25:48.492Z,1008.21
2018-08-13T12:27:15.860Z,1008.18
2018-08-13T12:28:43.547Z,1008.20
2018-08-13T12:30:11.301Z,1008.22
2018-08-13T12:31:38.983Z,1008.17
2018-08-13T12:33:06.540Z,1008.18
2018-08-13T12:34:34.145Z,1008.15
2018-08-13T12:36:01.803Z,1008.15
2018-08-13T12:37:29.549Z,1008.12
2018-08-13T12:38:57.077Z,1008.12
2018-08-13T12:40:24.592Z,1008.10
2018-08-13T12:41:52.337Z,1008.02
2018-08-13T12:43:20.066Z,1008.00
2018-08-13T12:44:47.648Z,1007.96
2018-08-13T12:46:15.494Z,1007.93
2018-08-13T12:47:43.040Z,1007.93
2018-08-13T12:49:10.786Z,1007.93
2018-08-13T12:50:38.515Z,1007.95
2018-08-13T12:52:06.155Z,1007.88
2018-08-13T12:53:33.993Z,1007.89
2018-08-13T12:55:01.702Z,1007.80
2018-08-13T12:56:29.413Z,1007.80
2018-08-13T12:57:57.081Z,1007.77
2018-08-13T12:59:24.753Z,1007.76
2018-08-13T13:00:52.472Z,1007.73
2018-08-13T13:02:20.022Z,1007.69
2018-08-13T13:03:47.627Z,1007.70
2018-08-13T13:05:15.305Z,1007.64
2018-08-13T13:06:42.962Z,1007.65
2018-08-13T13:08:10.734Z,1007.59
2018-08-13T13:09:38.463Z,1007.59
2018-08-13T13:11:06.220Z,1007.57
2018-08-13T13:12:33.694Z,1007.52
2018-08-13T13:14:01.484Z,1007.55
2018-08-13T13:15:29.114Z,1007.53
2018-08-13T13:16:56.811Z,1007.53
2018-08-13T13:18:24.234Z,1007.50
2018-08-13T13:19:52.045Z,1007.45
2018-08-13T13:21:19.741Z,1007.45
2018-08-13T13:22:47.316Z,1007.46
2018-08-13T13:24:15.061Z,1007.49
2018-08-13T13:25:42.841Z,1007.51
2018-08-13T13:27:10.455Z,1007.49
2018-08-13T13:28:38.061Z,1007.51
2018-08-13T13:30:05.652Z,1007.50
2018-08-13T13:31:33.244Z,1007.52
2018-08-13T13:33:01.092Z,1007.50
2018-08-13T13:34:28.775Z,1007.51
2018-08-13T13:35:56.407Z,1007.49
2018-08-13T13:37:23.660Z,1007.50
2018-08-13T13:38:51.302Z,1007.49
2018-08-13T13:40:19.063Z,1007.48
2018-08-13T13:41:46.350Z,1007.50
2018-08-13T13:43:14.285Z,1007.44
2018-08-13T13:44:41.940Z,1007.43
2018-08-13T13:46:09.567Z,1007.42
2018-08-13T13:47:37.387Z,1007.43
2018-08-13T13:49:05.108Z,1007.43
2018-08-13T13:50:32.812Z,1007.42
2018-08-13T13:52:00.614Z,1007.41
2018-08-13T13:53:28.239Z,1007.46
2018-08-13T13:54:55.968Z,1007.43
2018-08-13T13:56:23.563Z,1007.41
2018-08-13T13:57:51.287Z,1007.39
2018-08-13T13:59:18.956Z,1007.41
2018-08-13T14:00:46.306Z,1007.39
2018-08-13T14:02:13.959Z,1007.40
2018-08-13T14:03:41.683Z,1007.40
2018-08-13T14:05:09.382Z,1007.42
2018-08-13T14:06:37.203Z,1007.44
2018-08-13T14:08:04.784Z,1007.42
2018-08-13T14:09:32.448Z,1007.41
2018-08-13T14:11:00.037Z,1007.41
2018-08-13T14:12:27.781Z,1007.42
2018-08-13T14:13:55.385Z,1007.41
2018-08-13T14:15:22.932Z,1007.41
2018-08-13T14:16:50.628Z,1007.41
2018-08-13T14:18:17.688Z,1007.47
2018-08-13T14:19:45.408Z,1007.45
2018-08-13T14:21:13.124Z,1007.44
2018-08-13T14:22:40.691Z,1007.44
2018-08-13T14:24:08.495Z,1007.43
2018-08-13T14:25:36.184Z,1007.40
2018-08-13T14:27:03.883Z,1007.41
2018-08-13T14:28:31.583Z,1007.45
2018-08-13T14:29:59.208Z,1007.44
2018-08-13T14:31:26.680Z,1007.44
2018-08-13T14:32:54.294Z,1007.44
2018-08-13T14:34:21.764Z,1007.41
2018-08-13T14:35:49.430Z,1007.38
2018-08-13T14:37:16.935Z,1007.41
2018-08-13T14:38:44.367Z,1007.38
2018-08-13T14:40:12.142Z,1007.38
2018-08-13T14:41:39.784Z,1007.40
2018-08-13T14:43:07.341Z,1007.42
2018-08-13T14:44:34.934Z,1007.42
2018-08-13T14:46:02.593Z,1007.42
2018-08-13T14:47:30.222Z,1007.46
2018-08-13T14:48:57.916Z,1007.43
2018-08-13T14:50:25.131Z,1007.44
2018-08-13T14:51:52.565Z,1007.48
2018-08-13T14:53:19.920Z,1007.48
2018-08-13T14:54:47.604Z,1007.49
2018-08-13T14:56:15.250Z,1007.52
2018-08-13T14:57:42.805Z,1007.50
2018-08-13T14:59:10.533Z,1007.56
2018-08-13T15:00:38.203Z,1007.57
2018-08-13T15:02:05.881Z,1007.58
2018-08-13T15:03:33.595Z,1007.60
2018-08-13T15:05:01.377Z,1007.63
2018-08-13T15:06:29.042Z,1007.64
2018-08-13T15:07:56.530Z,1007.67
2018-08-13T15:09:24.297Z,1007.81
2018-08-13T15:10:52.640Z,1007.85
2018-08-13T15:12:19.225Z,1007.88
2018-08-13T15:13:46.701Z,1007.94
2018-08-13T15:15:14.269Z,1007.95
2018-08-13T15:16:41.637Z,1008.00
2018-08-13T15:18:09.271Z,1008.03
2018-08-13T15:19:36.885Z,1008.04
2018-08-13T15:21:04.302Z,1008.07
2018-08-13T15:22:31.928Z,1008.05
2018-08-13T15:23:59.094Z,1008.09
2018-08-13T15:25:26.584Z,1008.13
2018-08-13T15:26:54.169Z,1008.15
2018-08-13T15:28:21.844Z,1008.19
2018-08-13T15:29:49.344Z,1008.21
2018-08-13T15:31:16.978Z,1008.22
2018-08-13T15:32:44.686Z,1008.24
2018-08-13T15:34:12.338Z,1008.26
2018-08-13T15:35:39.847Z,1008.33
2018-08-13T15:37:07.294Z,1008.36
2018-08-13T15:38:34.855Z,1008.38
2018-08-13T15:40:02.612Z,1008.42
2018-08-13T15:41:30.246Z,1008.47
2018-08-13T15:42:57.816Z,1008.54
2018-08-13T15:44:25.497Z,1008.51
2018-08-13T15:45:52.852Z,1008.51
2018-08-13T15:47:20.548Z,1008.51
2018-08-13T15:48:48.249Z,1008.51
2018-08-13T15:50:15.786Z,1008.54
2018-08-13T15:51:43.449Z,1008.58
2018-08-13T15:53:11.023Z,1008.59
2018-08-13T15:54:38.634Z,1008.64
2018-08-13T15:56:06.349Z,1008.66
2018-08-13T15:57:33.809Z,1008.68
2018-08-13T15:59:01.520Z,1008.71
2018-08-13T16:00:29.339Z,1008.75
2018-08-13T16:01:56.946Z,1008.77
2018-08-13T16:03:24.508Z,1008.74
2018-08-13T16:04:52.022Z,1008.74
2018-08-13T16:06:19.584Z,1008.71
2018-08-13T16:07:47.096Z,1008.69
2018-08-13T16:09:14.814Z,1008.67
2018-08-13T16:10:42.420Z,1008.67
2018-08-13T16:12:09.968Z,1008.63
2018-08-13T16:13:37.530Z,1008.60
2018-08-13T16:15:05.097Z,1008.57
2018-08-13T16:16:32.740Z,1008.56
2018-08-13T16:18:00.355Z,1008.55
2018-08-13T16:19:27.887Z,1008.51
2018-08-13T16:20:55.523Z,1008.52
2018-08-13T16:22:23.068Z,1008.50
2018-08-13T16:23:50.686Z,1008.51
2018-08-13T16:25:18.263Z,1008.50
2018-08-13T16:26:45.982Z,1008.50
2018-08-13T16:28:13.402Z,1008.50
2018-08-13T16:29:40.991Z,1008.50
2018-08-13T16:31:08.488Z,1008.51
2018-08-13T16:32:36.141Z,1008.51
2018-08-13T16:34:03.533Z,1008.50
2018-08-13T16:35:31.141Z,1008.52
2018-08-13T16:36:58.797Z,1008.52
2018-08-13T16:38:26.420Z,1008.51
2018-08-13T16:39:53.956Z,1008.51
2018-08-13T16:41:21.596Z,1008.50
2018-08-13T16:42:49.070Z,1008.51
2018-08-13T16:44:16.529Z,1008.52
2018-08-13T16:45:43.946Z,1008.51
2018-08-13T16:47:11.462Z,1008.54
2018-08-13T16:48:38.870Z,1008.55
2018-08-13T16:50:06.621Z,1008.57
2018-08-13T16:51:34.199Z,1008.57
2018-08-13T16:53:01.935Z,1008.54
2018-08-13T16:54:29.420Z,1008.50
2018-08-13T16:55:57.210Z,1008.47
2018-08-13T16:57:24.751Z,1008.47
2018-08-13T16:58:52.453Z,1008.41
2018-08-13T17:00:19.844Z,1008.39
2018-08-13T17:01:47.288Z,1008.38
2018-08-13T17:03:15.054Z,1008.42
2018-08-13T17:04:42.846Z,1008.41
2018-08-13T17:06:10.478Z,1008.40
2018-08-13T17:07:38.081Z,1008.43
2018-08-13T17:09:05.276Z,1008.46
2018-08-13T17:10:32.814Z,1008.44
2018-08-13T17:12:00.269Z,1008.44
2018-08-13T17:13:27.790Z,1008.44
2018-08-13T17:14:55.479Z,1008.41
2018-08-13T17:16:23.078Z,1008.42
2018-08-13T17:17:50.552Z,1008.36
2018-08-13T17:19:18.188Z,1008.26
2018-08-13T17:20:45.716Z,1008.19
2018-08-13T17:22:13.349Z,1008.12
2018-08-13T17:23:41.013Z,1008.10
2018-08-13T17:25:08.623Z,1008.09
2018-08-13T17:26:36.122Z,1008.07
2018-08-13T17:28:03.956Z,1008.05
2018-08-13T17:29:31.349Z,1008.03
2018-08-13T17:30:58.848Z,1008.04
2018-08-13T17:32:26.434Z,1008.03
2018-08-13T17:33:54.148Z,1008.08
2018-08-13T17:35:21.744Z,1008.11
2018-08-13T17:36:49.298Z,1008.14
2018-08-13T17:38:16.845Z,1008.18
2018-08-13T17:39:44.334Z,1008.19
2018-08-13T17:41:11.948Z,1008.24
2018-08-13T17:42:39.623Z,1008.25
2018-08-13T17:44:07.043Z,1008.28
2018-08-13T17:45:34.618Z,1008.28
2018-08-13T17:47:02.359Z,1008.27
2018-08-13T17:48:29.729Z,1008.23
2018-08-13T17:49:57.238Z,1008.23
2018-08-13T17:51:24.829Z,1008.17
2018-08-13T17:52:52.223Z,1008.12
2018-08-13T17:54:19.955Z,1008.10
2018-08-13T17:55:47.398Z,1008.11
2018-08-13T17:57:14.906Z,1008.12
2018-08-13T17:58:42.624Z,1008.13
2018-08-13T18:00:10.165Z,1008.12
2018-08-13T18:01:37.813Z,1008.12
2018-08-13T18:03:05.259Z,1008.09
2018-08-13T18:04:32.970Z,1008.06
2018-08-13T18:06:00.583Z,1008.05
2018-08-13T18:07:28.057Z,1008.03
2018-08-13T18:08:55.545Z,1008.00
2018-08-13T18:10:23.129Z,1007.99
2018-08-13T18:11:50.666Z,1007.99
2018-08-13T18:13:18.274Z,1007.99
2018-08-13T18:14:45.785Z,1008.00
2018-08-13T18:16:13.330Z,1008.01
2018-08-13T18:17:40.896Z,1008.01
2018-08-13T18:19:08.393Z,1008.02
2018-08-13T18:20:35.789Z,1008.02
2018-08-13T18:22:03.350Z,1008.02
2018-08-13T18:23:31.134Z,1008.02
2018-08-13T18:24:58.666Z,1008.02
2018-08-13T18:26:26.182Z,1007.99
2018-08-13T18:27:53.595Z,1008.01
2018-08-13T18:29:21.304Z,1008.04
2018-08-13T18:30:48.780Z,1008.05
2018-08-13T18:32:16.259Z,1008.11
2018-08-13T18:33:43.753Z,1008.12
2018-08-13T18:35:11.401Z,1008.14
2018-08-13T18:36:39.000Z,1008.16
2018-08-13T18:38:06.503Z,1008.15
2018-08-13T18:39:34.095Z,1008.15
2018-08-13T18:41:01.625Z,1008.17
2018-08-13T18:42:29.054Z,1008.18
2018-08-13T18:43:56.645Z,1008.18
2018-08-13T18:45:24.062Z,1008.19
2018-08-13T18:46:51.575Z,1008.22
2018-08-13T18:48:18.965Z,1008.25
2018-08-13T18:49:46.558Z,1008.27
2018-08-13T18:51:14.187Z,1008.30
2018-08-13T18:52:41.736Z,1008.31
2018-08-13T18:54:09.064Z,1008.31
2018-08-13T18:55:36.211Z,1008.35
2018-08-13T18:57:03.776Z,1008.35
2018-08-13T18:58:31.275Z,1008.31
2018-08-13T18:59:58.738Z,1008.32
2018-08-13T19:01:26.407Z,1008.37
2018-08-13T19:02:53.885Z,1008.42
2018-08-13T19:04:21.592Z,1008.45
2018-08-13T19:05:48.999Z,1008.50
2018-08-13T19:07:16.174Z,1008.51
2018-08-13T19:08:43.684Z,1008.51
2018-08-13T19:10:10.959Z,1008.55
2018-08-13T19:11:38.479Z,1008.55
2018-08-13T19:13:05.991Z,1008.55
2018-08-13T19:14:33.506Z,1008.59
2018-08-13T19:16:01.389Z,1008.62
2018-08-13T19:17:28.805Z,1008.64
2018-08-13T19:18:56.157Z,1008.63
2018-08-13T19:20:23.693Z,1008.62
2018-08-13T19:21:51.098Z,1008.61
2018-08-13T19:23:18.735Z,1008.61
2018-08-13T19:24:46.071Z,1008.63
2018-08-13T19:26:13.410Z,1008.63
2018-08-13T19:27:41.212Z,1008.66
2018-08-13T19:29:08.578Z,1008.70
2018-08-13T19:30:36.264Z,1008.73
2018-08-13T19:32:03.848Z,1008.73
2018-08-13T19:33:31.330Z,1008.73
2018-08-13T19:34:58.933Z,1008.74
2018-08-13T19:36:26.453Z,1008.75
2018-08-13T19:37:54.106Z,1008.76
2018-08-13T19:39:21.529Z,1008.78
2018-08-13T19:40:48.877Z,1008.83
2018-08-13T19:42:16.207Z,1008.84
2018-08-13T19:43:43.771Z,1008.78
2018-08-13T19:45:11.333Z,1008.79
2018-08-13T19:46:38.917Z,1008.81
2018-08-13T19:48:06.383Z,1008.81
2018-08-13T19:49:33.925Z,1008.79